Time;durP1;ratioP1;P1;durP2;ratioP2;P2;SDS_P1;SDS_P2;PMS_P1;PMS_P2;Temp;Humidity;BMP_temperature;BMP_pressure;BME280_temperature;BME280_humidity;BME280_pressure;Samples;Min_cycle;Max_cycle;Signal;HPM_P1;HPM_P2
2023/06/14 00:02:03;;;;;;;8.20;6.20;;;;;;;15.14;69.12;99334.70;107305;1254;73932;-39
2023/06/14 00:04:31;;;;;;;8.50;6.50;;;;;;;15.16;69.27;99333.78;107369;1256;67247;-39
2023/06/14 00:06:59;;;;;;;10.10;6.60;;;;;;;15.18;69.31;99331.44;107302;1256;72745;-39
2023/06/14 00:09:27;;;;;;;7.40;6.00;;;;;;;15.21;69.41;99330.35;107288;1256;60376;-39
2023/06/14 00:11:55;;;;;;;9.50;6.40;;;;;;;15.23;69.36;99331.51;107324;1256;60329;-39
2023/06/14 00:14:22;;;;;;;7.30;6.10;;;;;;;15.25;69.22;99321.21;107345;1256;72982;-39
2023/06/14 00:16:52;;;;;;;7.90;5.30;;;;;;;15.30;69.09;99319.57;107348;1261;67540;-38
2023/06/14 00:19:20;;;;;;;8.40;6.00;;;;;;;15.35;69.05;99322.29;107339;1256;70923;-38
2023/06/14 00:21:48;;;;;;;8.90;6.20;;;;;;;15.37;69.13;99328.23;107290;1256;60412;-39
2023/06/14 00:24:16;;;;;;;7.70;5.60;;;;;;;15.38;69.00;99324.16;107304;1260;60314;-39
2023/06/14 00:26:44;;;;;;;8.00;6.20;;;;;;;15.40;68.78;99324.70;107276;1254;73907;-39
2023/06/14 00:29:12;;;;;;;7.70;6.30;;;;;;;15.40;68.77;99322.67;107361;1256;66291;-39
2023/06/14 00:31:39;;;;;;;8.50;5.80;;;;;;;15.39;68.96;99321.36;107306;1256;72777;-39
2023/06/14 00:34:09;;;;;;;9.50;5.90;;;;;;;15.41;69.06;99323.31;107296;1256;60885;-39
2023/06/14 00:36:37;;;;;;;9.70;5.90;;;;;;;15.46;69.08;99324.23;107349;1254;60375;-39
2023/06/14 00:39:05;;;;;;;10.00;6.20;;;;;;;15.45;69.15;99328.22;107276;1254;73169;-39
2023/06/14 00:41:32;;;;;;;8.10;6.40;;;;;;;15.46;69.22;99327.66;107356;1261;66331;-39
2023/06/14 00:44:01;;;;;;;10.40;6.30;;;;;;;15.46;69.26;99327.51;107321;1254;72684;-39
2023/06/14 00:46:28;;;;;;;10.40;6.20;;;;;;;15.44;69.24;99328.45;107332;1260;60509;-39
2023/06/14 00:48:57;;;;;;;7.70;5.50;;;;;;;15.43;69.33;99328.52;107334;1257;60441;-39
2023/06/14 00:51:24;;;;;;;6.60;5.80;;;;;;;15.46;69.32;99328.60;107394;1254;73021;-39
2023/06/14 00:53:52;;;;;;;8.90;6.30;;;;;;;15.52;69.82;99332.29;107288;1254;67590;-39
2023/06/14 00:56:20;;;;;;;8.20;6.40;;;;;;;15.55;69.95;99326.44;107281;1256;72797;-39
2023/06/14 00:58:51;;;;;;;6.50;5.90;;;;;;;15.55;69.95;99326.52;107337;1260;60351;-39
2023/06/14 01:01:19;;;;;;;8.20;6.30;;;;;;;15.53;70.11;99328.71;107341;1254;60589;-39
2023/06/14 01:03:47;;;;;;;8.50;6.30;;;;;;;15.48;70.33;99333.30;107349;1254;73907;-39
2023/06/14 01:06:47;;;;;;;8.00;5.90;;;;;;;15.46;70.22;99332.50;107325;1256;67909;-39
2023/06/14 01:09:28;;;;;;;7.50;6.40;;;;;;;15.43;70.19;99327.29;107322;1256;72470;-39
2023/06/14 01:12:05;;;;;;;8.20;6.10;;;;;;;15.40;70.26;99329.77;107362;1260;60514;-39
2023/06/14 01:14:33;;;;;;;9.10;6.70;;;;;;;15.40;70.56;99324.39;107376;1255;60454;-39
2023/06/14 01:17:01;;;;;;;9.90;7.00;;;;;;;15.40;70.42;99327.52;107294;1255;73207;-39
2023/06/14 01:19:29;;;;;;;8.70;6.40;;;;;;;15.40;70.27;99327.13;107320;1254;67911;-39
2023/06/14 01:21:57;;;;;;;8.80;6.40;;;;;;;15.40;70.11;99330.88;107140;1256;72722;-39
2023/06/14 01:24:28;;;;;;;11.60;6.50;;;;;;;15.39;70.01;99328.69;107290;1255;61668;-39
2023/06/14 01:26:56;;;;;;;7.80;5.90;;;;;;;15.43;70.04;99329.77;107318;1254;60318;-39
2023/06/14 01:29:32;;;;;;;11.10;6.20;;;;;;;15.50;70.09;99326.13;107283;1254;73849;-39
2023/06/14 01:32:00;;;;;;;12.70;6.90;;;;;;;15.53;70.07;99330.58;107370;1254;66423;-39
2023/06/14 01:34:31;;;;;;;9.10;7.20;;;;;;;15.53;70.14;99329.95;107290;1256;72676;-39
2023/06/14 01:37:00;;;;;;;11.10;7.40;;;;;;;15.54;70.11;99328.70;107280;1254;60506;-39
2023/06/14 01:39:28;;;;;;;10.10;7.80;;;;;;;15.54;70.12;99326.60;107242;1260;60303;-38
2023/06/14 01:41:57;;;;;;;9.70;6.60;;;;;;;15.56;70.08;99326.13;107302;1256;73930;-39
2023/06/14 01:44:25;;;;;;;10.20;7.30;;;;;;;15.59;69.75;99324.48;107314;1256;66763;-38
2023/06/14 01:46:53;;;;;;;10.10;7.50;;;;;;;15.63;69.41;99327.74;107334;1255;71259;-39
2023/06/14 01:49:23;;;;;;;12.50;7.50;;;;;;;15.63;69.28;99328.98;107260;1256;60363;-39
2023/06/14 01:51:51;;;;;;;8.40;7.40;;;;;;;15.60;69.06;99332.44;107367;1258;60328;-38
2023/06/14 01:54:18;;;;;;;10.00;7.40;;;;;;;15.59;69.07;99332.98;107366;1256;72602;-38
2023/06/14 01:56:46;;;;;;;10.40;7.50;;;;;;;15.56;69.19;99331.82;107275;1254;66073;-38
2023/06/14 01:59:14;;;;;;;8.50;6.80;;;;;;;15.53;69.31;99328.16;107278;1255;71502;-39
2023/06/14 02:01:43;;;;;;;11.20;7.20;;;;;;;15.55;69.30;99326.98;107309;1254;62073;-39
2023/06/14 02:04:11;;;;;;;9.60;6.70;;;;;;;15.56;69.30;99322.83;107417;1254;60323;-39
2023/06/14 02:06:39;;;;;;;9.50;7.00;;;;;;;15.56;69.24;99326.90;107307;1256;73883;-39
2023/06/14 02:09:07;;;;;;;13.70;7.30;;;;;;;15.51;69.24;99325.48;107348;1254;67598;-39
2023/06/14 02:11:34;;;;;;;12.70;7.40;;;;;;;15.49;69.23;99328.36;107290;1256;72698;-39
2023/06/14 02:14:02;;;;;;;10.90;7.40;;;;;;;15.47;69.26;99324.16;107288;1257;60222;-39
2023/06/14 02:16:30;;;;;;;9.10;6.90;;;;;;;15.46;69.25;99325.41;107393;1259;60295;-39
2023/06/14 02:18:58;;;;;;;10.10;6.50;;;;;;;15.48;69.60;99328.45;107301;1261;71948;-39
2023/06/14 02:21:25;;;;;;;7.80;6.60;;;;;;;15.52;69.58;99326.04;107386;1255;66265;-39
2023/06/14 02:23:53;;;;;;;11.40;6.70;;;;;;;15.53;69.60;99328.63;107362;1254;71103;-39
2023/06/14 02:26:22;;;;;;;10.10;7.30;;;;;;;15.54;69.68;99330.10;107343;1256;60423;-39
2023/06/14 02:28:50;;;;;;;10.60;7.10;;;;;;;15.50;69.58;99329.94;107345;1256;60380;-39
2023/06/14 02:31:17;;;;;;;11.90;7.40;;;;;;;15.45;69.78;99328.37;107323;1256;72021;-39
2023/06/14 02:33:48;;;;;;;11.80;6.90;;;;;;;15.42;70.01;99325.18;107334;1253;66653;-38
2023/06/14 02:36:16;;;;;;;10.60;6.40;;;;;;;15.46;70.15;99333.68;107333;1253;72703;-39
2023/06/14 02:38:45;;;;;;;9.10;6.60;;;;;;;15.51;70.10;99335.73;107343;1254;60745;-39
2023/06/14 02:41:12;;;;;;;8.60;6.90;;;;;;;15.54;70.28;99335.42;107358;1253;60342;-39
2023/06/14 02:43:40;;;;;;;11.90;6.80;;;;;;;15.55;70.35;99337.21;107377;1253;73942;-39
2023/06/14 02:46:08;;;;;;;8.20;6.90;;;;;;;15.57;70.50;99336.03;107380;1253;67584;-38
2023/06/14 02:48:35;;;;;;;9.60;6.90;;;;;;;15.57;70.48;99338.38;107351;1253;72658;-39
2023/06/14 02:51:03;;;;;;;9.00;6.30;;;;;;;15.63;70.44;99346.88;107525;1253;61723;-39
2023/06/14 02:53:31;;;;;;;10.60;6.80;;;;;;;15.71;70.47;99340.30;107372;1254;60775;-38
2023/06/14 02:55:59;;;;;;;9.00;6.60;;;;;;;15.75;70.53;99338.89;107389;1253;72580;-39
2023/06/14 02:58:28;;;;;;;12.20;7.40;;;;;;;15.77;70.59;99337.79;107277;1253;67734;-38
2023/06/14 03:00:56;;;;;;;8.50;7.00;;;;;;;15.78;70.61;99336.61;107417;1254;71424;-39
2023/06/14 03:03:25;;;;;;;8.40;5.70;;;;;;;15.80;70.63;99340.27;107371;1258;60515;-39
2023/06/14 03:05:55;;;;;;;11.90;6.00;;;;;;;15.88;70.66;99339.79;107384;1258;59305;-39
2023/06/14 03:08:28;;;;;;;9.00;5.90;;;;;;;15.96;70.58;99339.85;107452;1254;72601;-39
2023/06/14 03:10:59;;;;;;;7.80;5.50;;;;;;;15.98;70.58;99334.21;107414;1253;66619;-38
2023/06/14 03:13:27;;;;;;;9.40;5.50;;;;;;;15.99;70.53;99331.23;107400;1256;71553;-39
2023/06/14 03:15:56;;;;;;;6.50;5.50;;;;;;;16.00;70.57;99331.15;107285;1256;60495;-39
2023/06/14 03:18:24;;;;;;;9.20;5.20;;;;;;;16.02;70.37;99335.77;107398;1254;60045;-39
2023/06/14 03:20:56;;;;;;;10.90;5.70;;;;;;;16.04;70.19;99330.05;107447;1254;73860;-38
2023/06/14 03:23:25;;;;;;;7.60;5.60;;;;;;;16.12;70.06;99331.81;107577;1254;66315;-39
2023/06/14 03:25:53;;;;;;;6.00;4.90;;;;;;;16.15;70.17;99333.60;107390;1255;71430;-38
2023/06/14 03:28:21;;;;;;;6.10;5.50;;;;;;;16.19;70.26;99336.17;107361;1253;60233;-39
2023/06/14 03:30:51;;;;;;;13.70;5.60;;;;;;;16.23;70.28;99332.32;107398;1258;60294;-39
2023/06/14 03:33:19;;;;;;;6.70;4.20;;;;;;;16.25;69.90;99328.47;107282;1254;72759;-38
2023/06/14 03:35:46;;;;;;;6.90;3.90;;;;;;;16.32;69.51;99328.99;107612;1254;66917;-39
2023/06/14 03:38:14;;;;;;;7.00;4.30;;;;;;;16.41;69.41;99331.77;107394;1259;71414;-39
2023/06/14 03:40:42;;;;;;;6.30;4.50;;;;;;;16.47;69.09;99333.61;107384;1256;60600;-39
2023/06/14 03:43:10;;;;;;;7.30;4.60;;;;;;;16.49;68.78;99332.51;107431;1254;60508;-39
2023/06/14 03:45:38;;;;;;;7.40;4.80;;;;;;;16.49;68.70;99334.85;107382;1258;73873;-39
2023/06/14 03:48:08;;;;;;;6.80;4.70;;;;;;;16.49;68.72;99331.73;107414;1258;66295;-39
2023/06/14 03:50:38;;;;;;;6.40;4.20;;;;;;;16.49;68.52;99328.67;107396;1253;72099;-39
2023/06/14 03:53:06;;;;;;;5.60;4.10;;;;;;;16.52;68.59;99329.05;107446;1260;61682;-39
2023/06/14 03:55:37;;;;;;;7.40;4.60;;;;;;;16.59;68.58;99331.37;107544;1259;59516;-39
2023/06/14 03:58:31;;;;;;;7.20;4.00;;;;;;;16.62;68.28;99331.98;107414;1258;73896;-39
2023/06/14 04:01:00;;;;;;;8.50;5.30;;;;;;;16.62;68.31;99333.86;107412;1254;67576;-39
2023/06/14 04:03:31;;;;;;;7.30;4.60;;;;;;;16.63;68.17;99333.70;107363;1259;71398;-39
2023/06/14 04:06:00;;;;;;;;;;;;;;;16.65;68.42;99329.70;107370;1253;60182;-39
2023/06/14 04:08:28;;;;;;;7.10;4.20;;;;;;;16.64;68.55;99326.82;107378;1253;60306;-39
2023/06/14 04:10:58;;;;;;;8.40;3.90;;;;;;;16.68;68.25;99329.52;107450;1258;73899;-39
2023/06/14 04:13:26;;;;;;;9.10;4.40;;;;;;;16.75;68.46;99329.25;107375;1258;67557;-39
2023/06/14 04:15:53;;;;;;;9.40;4.40;;;;;;;16.82;68.45;99327.72;107414;1258;71461;-40
2023/06/14 04:18:26;;;;;;;9.70;4.60;;;;;;;16.88;68.28;99327.81;107407;1253;60372;-39
2023/06/14 04:20:56;;;;;;;5.40;3.30;;;;;;;16.91;67.78;99329.67;107414;1258;60772;-39
2023/06/14 04:23:24;;;;;;;8.20;5.10;;;;;;;16.93;67.86;99330.60;107402;1258;72681;-39
2023/06/14 04:25:52;;;;;;;7.90;4.20;;;;;;;16.98;67.90;99326.58;107336;1255;66290;-39
2023/06/14 04:28:20;;;;;;;10.40;4.40;;;;;;;17.05;67.62;99329.03;107370;1258;71423;-39
2023/06/14 04:30:48;;;;;;;8.90;4.00;;;;;;;17.14;67.40;99332.64;107399;1255;59739;-39
2023/06/14 04:33:18;;;;;;;7.20;4.40;;;;;;;17.20;67.49;99330.16;107397;1258;59314;-39
2023/06/14 04:35:53;;;;;;;9.40;5.00;;;;;;;17.23;67.52;99332.88;107330;1254;74014;-39
2023/06/14 04:38:26;;;;;;;6.30;4.30;;;;;;;17.28;67.52;99333.77;107437;1258;66424;-39
2023/06/14 04:40:53;;;;;;;9.70;4.90;;;;;;;17.32;66.85;99336.40;107384;1257;72699;-40
2023/06/14 04:43:25;;;;;;;9.10;4.50;;;;;;;17.34;66.27;99331.69;107441;1253;60283;-39
2023/06/14 04:45:56;;;;;;;5.30;3.80;;;;;;;17.37;66.57;99330.16;107379;1258;60368;-39
2023/06/14 04:48:25;;;;;;;7.70;3.70;;;;;;;17.46;66.53;99327.52;107346;1254;73836;-39
2023/06/14 04:50:54;;;;;;;8.60;4.20;;;;;;;17.57;66.59;99324.36;107395;1255;66298;-39
2023/06/14 04:53:22;;;;;;;9.60;3.80;;;;;;;17.64;66.27;99320.38;107399;1259;72702;-39
2023/06/14 04:55:54;;;;;;;9.40;4.10;;;;;;;17.70;66.11;99323.69;107420;1253;60172;-39
2023/06/14 04:58:22;;;;;;;6.40;3.90;;;;;;;17.76;65.34;99319.86;107402;1259;60432;-39
2023/06/14 05:00:50;;;;;;;5.20;3.50;;;;;;;17.80;64.59;99319.98;107426;1253;73869;-39
2023/06/14 05:03:18;;;;;;;7.60;4.00;;;;;;;17.83;64.19;99318.61;107433;1259;67919;-39
2023/06/14 05:05:47;;;;;;;9.70;4.20;;;;;;;17.85;63.89;99317.02;107308;1259;72712;-40
2023/06/14 05:08:14;;;;;;;7.00;4.20;;;;;;;17.86;64.00;99318.75;107317;1254;60431;-39
2023/06/14 05:10:43;;;;;;;6.80;3.70;;;;;;;17.88;64.71;99320.52;107291;1260;60086;-38
2023/06/14 05:13:11;;;;;;;6.40;3.60;;;;;;;17.93;64.44;99320.30;107311;1254;73856;-39
2023/06/14 05:15:39;;;;;;;4.50;3.30;;;;;;;18.00;63.55;99319.91;107390;1258;66367;-38
2023/06/14 05:18:08;;;;;;;6.80;3.70;;;;;;;18.05;63.51;99320.95;107419;1259;72683;-39
2023/06/14 05:20:37;;;;;;;7.00;3.90;;;;;;;18.09;63.30;99324.83;107311;1254;60387;-39
2023/06/14 05:23:05;;;;;;;8.70;3.90;;;;;;;18.11;63.21;99326.36;107406;1258;60499;-39
2023/06/14 05:25:32;;;;;;;7.00;3.90;;;;;;;18.15;62.91;99328.66;107439;1259;73872;-39
2023/06/14 05:28:00;;;;;;;7.00;3.90;;;;;;;18.22;62.61;99324.03;107448;1255;66909;-39
2023/06/14 05:30:30;;;;;;;6.50;3.70;;;;;;;18.27;62.16;99323.10;107429;1255;72765;-39
2023/06/14 05:32:58;;;;;;;6.60;3.70;;;;;;;18.31;62.04;99326.42;107429;1254;60526;-39
2023/06/14 05:35:26;;;;;;;7.90;3.70;;;;;;;18.35;61.88;99325.04;107440;1254;60376;-39
2023/06/14 05:37:54;;;;;;;6.20;3.40;;;;;;;18.40;61.70;99325.91;107419;1254;72580;-40
2023/06/14 05:40:21;;;;;;;10.90;3.30;;;;;;;18.49;61.69;99325.88;107390;1255;66299;-44
2023/06/14 05:42:49;;;;;;;7.80;3.80;;;;;;;18.61;61.44;99322.27;107432;1258;72718;-39
2023/06/14 05:45:17;;;;;;;9.30;3.80;;;;;;;18.68;60.45;99325.39;107381;1254;60447;-39
2023/06/14 05:47:45;;;;;;;7.40;3.90;;;;;;;18.74;60.22;99326.95;107438;1258;60502;-39
2023/06/14 05:50:13;;;;;;;4.10;3.70;;;;;;;18.81;60.19;99330.39;107421;1258;72991;-39
2023/06/14 05:52:40;;;;;;;4.60;3.60;;;;;;;18.88;59.45;99331.61;107456;1254;67599;-38
2023/06/14 05:55:08;;;;;;;5.40;4.00;;;;;;;18.92;59.22;99332.73;107312;1254;221988;-39
2023/06/14 05:59:38;;;;;;;7.60;4.10;;;;;;;18.97;59.24;99324.54;104202;1291;601099;-38
2023/06/14 06:02:06;;;;;;;7.20;3.90;;;;;;;19.01;59.23;99322.06;106651;1267;59305;-39
2023/06/14 06:04:34;;;;;;;5.30;3.90;;;;;;;19.07;59.44;99318.14;106637;1265;60057;-39
2023/06/14 06:07:01;;;;;;;6.00;3.90;;;;;;;19.11;59.05;99314.06;106700;1266;72718;-39
2023/06/14 06:09:29;;;;;;;5.10;3.60;;;;;;;19.16;59.32;99316.17;106698;1267;67559;-40
2023/06/14 06:11:57;;;;;;;5.50;3.10;;;;;;;19.21;58.54;99316.80;106680;1267;72669;-40
2023/06/14 06:14:25;;;;;;;4.50;3.10;;;;;;;19.28;57.38;99312.38;106569;1263;225954;-38
2023/06/14 06:16:53;;;;;;;4.40;3.20;;;;;;;19.33;56.59;99312.52;106798;1263;60039;-39
2023/06/14 06:19:20;;;;;;;5.90;3.40;;;;;;;19.37;56.56;99317.30;106862;1264;72729;-39
2023/06/14 06:21:48;;;;;;;5.70;3.40;;;;;;;19.42;56.71;99319.11;106836;1263;66637;-39
2023/06/14 06:24:16;;;;;;;5.60;3.20;;;;;;;19.47;56.26;99317.39;106827;1263;72660;-39
2023/06/14 06:26:44;;;;;;;4.70;3.50;;;;;;;19.53;56.15;99306.35;106799;1264;60077;-39
2023/06/14 06:29:12;;;;;;;6.50;3.00;;;;;;;19.61;56.12;99310.08;106828;1263;60022;-39
2023/06/14 06:31:39;;;;;;;4.50;3.40;;;;;;;19.66;56.13;99311.95;106744;1264;73033;-39
2023/06/14 06:34:07;;;;;;;4.30;3.30;;;;;;;19.72;56.16;99316.71;106739;1263;65711;-39
2023/06/14 06:36:35;;;;;;;5.50;3.20;;;;;;;19.77;56.38;99316.70;106747;1264;72723;-39
2023/06/14 06:39:09;;;;;;;8.40;3.10;;;;;;;19.81;55.52;99310.80;106755;1263;61137;-39
2023/06/14 06:41:41;;;;;;;8.60;3.30;;;;;;;19.88;55.48;99307.83;106794;1263;60005;-39
2023/06/14 06:44:12;;;;;;;5.20;3.20;;;;;;;19.93;55.48;99307.55;106739;1264;72478;-39
2023/06/14 06:46:40;;;;;;;5.40;3.30;;;;;;;20.00;55.62;99305.30;106765;1263;67904;-39
2023/06/14 06:49:11;;;;;;;4.10;3.20;;;;;;;20.09;55.25;99307.48;106751;1263;72733;-39
2023/06/14 06:51:45;;;;;;;4.00;2.70;;;;;;;20.19;55.34;99301.93;106824;1264;60071;-39
2023/06/14 06:54:13;;;;;;;6.70;3.30;;;;;;;20.28;54.91;99300.17;106857;1264;59512;-39
2023/06/14 06:56:40;;;;;;;7.10;3.30;;;;;;;20.37;55.09;99299.60;106843;1267;73009;-39
2023/06/14 06:59:08;;;;;;;6.10;3.00;;;;;;;20.41;55.15;99298.26;106824;1264;67565;-39
2023/06/14 07:01:36;;;;;;;5.80;3.20;;;;;;;20.49;54.89;99300.51;106921;1264;72680;-39
2023/06/14 07:04:04;;;;;;;6.70;3.30;;;;;;;20.56;54.40;99300.83;106839;1263;60082;-39
2023/06/14 07:06:31;;;;;;;6.40;3.10;;;;;;;20.63;54.15;99303.58;106839;1264;59601;-39
2023/06/14 07:09:01;;;;;;;4.20;3.00;;;;;;;20.72;53.37;99302.44;106853;1263;73041;-39
2023/06/14 07:11:29;;;;;;;;;;;;;;;20.80;52.29;99305.15;106856;1263;67624;-39
2023/06/14 07:13:56;;;;;;;3.90;2.70;;;;;;;20.83;52.13;99302.27;106853;1264;72809;-39
2023/06/14 07:16:24;;;;;;;4.10;2.70;;;;;;;20.88;51.66;99300.56;106801;1264;60094;-39
2023/06/14 07:18:52;;;;;;;4.30;2.90;;;;;;;20.99;51.19;99298.73;106862;1264;60012;-39
2023/06/14 07:21:20;;;;;;;4.50;2.70;;;;;;;21.07;51.80;99298.68;106845;1264;71842;-39
2023/06/14 07:23:47;;;;;;;4.30;2.50;;;;;;;21.15;51.49;99293.77;106845;1263;66458;-39
2023/06/14 07:26:15;;;;;;;5.80;2.70;;;;;;;21.24;50.99;99295.13;106803;1263;73178;-39
2023/06/14 07:28:44;;;;;;;3.10;2.60;;;;;;;21.34;51.02;99293.23;106825;1263;60079;-39
2023/06/14 07:31:13;;;;;;;3.40;2.80;;;;;;;21.45;50.42;99292.86;106832;1263;60127;-40
2023/06/14 07:33:43;;;;;;;5.10;2.70;;;;;;;21.53;50.28;99296.84;106828;1263;73024;-40
2023/06/14 07:36:11;;;;;;;3.60;2.50;;;;;;;21.61;49.97;99298.73;106849;1263;67921;-39
2023/06/14 07:38:40;;;;;;;5.40;2.50;;;;;;;21.73;50.56;99299.38;106829;1263;72707;-39
2023/06/14 07:41:08;;;;;;;3.00;2.40;;;;;;;21.83;50.67;99298.84;106912;1263;60111;-39
2023/06/14 07:43:35;;;;;;;5.00;2.60;;;;;;;21.93;50.62;99295.19;106858;1263;59991;-39
2023/06/14 07:46:04;;;;;;;3.20;2.70;;;;;;;22.02;49.80;99292.25;106833;1263;73029;-39
2023/06/14 07:48:34;;;;;;;4.60;2.50;;;;;;;22.12;49.67;99294.04;106752;1263;68009;-39
2023/06/14 07:51:02;;;;;;;4.10;2.70;;;;;;;22.19;49.21;99296.60;106886;1263;72795;-40
2023/06/14 07:53:33;;;;;;;3.20;2.50;;;;;;;22.25;49.01;99297.28;106820;1264;60110;-39
2023/06/14 07:56:00;;;;;;;4.80;2.60;;;;;;;22.33;48.97;99297.83;106821;1263;60081;-39
2023/06/14 07:58:28;;;;;;;4.50;2.50;;;;;;;22.44;49.02;99299.55;106802;1268;73052;-39
2023/06/14 08:00:55;;;;;;;9.00;2.80;;;;;;;22.53;48.15;99299.27;106855;1263;67803;-40
2023/06/14 08:03:24;;;;;;;2.90;2.40;;;;;;;22.57;47.87;99298.60;106834;1263;72667;-39
2023/06/14 08:05:52;;;;;;;5.60;2.40;;;;;;;22.59;48.32;99296.32;106851;1263;60092;-40
2023/06/14 08:08:19;;;;;;;5.40;2.70;;;;;;;22.66;48.74;99298.54;106743;1263;60061;-39
2023/06/14 08:10:47;;;;;;;2.90;2.40;;;;;;;22.75;48.70;99292.94;106840;1263;73015;-39
2023/06/14 08:13:15;;;;;;;4.10;2.50;;;;;;;22.89;48.67;99299.73;106804;1268;67592;-39
2023/06/14 08:15:42;;;;;;;3.20;2.30;;;;;;;23.04;48.77;99297.20;106833;1263;71723;-40
2023/06/14 08:18:10;;;;;;;3.40;2.20;;;;;;;23.18;48.23;99293.50;106818;1264;60084;-40
2023/06/14 08:20:38;;;;;;;2.90;2.30;;;;;;;23.34;48.01;99296.13;106793;1263;59625;-40
2023/06/14 08:23:05;;;;;;;4.10;2.40;;;;;;;23.47;47.55;99293.02;106805;1263;73106;-39
2023/06/14 08:25:33;;;;;;;5.90;2.90;;;;;;;23.58;46.71;99286.21;106855;1263;66792;-39
2023/06/14 08:28:01;;;;;;;3.70;2.50;;;;;;;23.62;46.38;99285.93;106832;1263;72699;-39
2023/06/14 08:30:28;;;;;;;5.30;2.80;;;;;;;23.65;46.23;99292.21;106805;1263;60078;-40
2023/06/14 08:32:56;;;;;;;2.70;2.50;;;;;;;23.71;46.19;99287.48;106850;1263;59147;-39
2023/06/14 08:35:42;;;;;;;2.50;2.30;;;;;;;23.77;46.04;99289.90;106867;1263;73052;-39
2023/06/14 08:38:11;;;;;;;4.60;2.10;;;;;;;23.85;46.25;99288.12;106816;1264;68634;-39
2023/06/14 08:40:39;;;;;;;3.70;2.20;;;;;;;23.96;46.03;99285.17;106824;1264;72684;-39
2023/06/14 08:43:07;;;;;;;5.60;2.60;;;;;;;24.09;46.33;99280.11;106766;1267;60059;-39
2023/06/14 08:45:35;;;;;;;4.00;2.70;;;;;;;24.17;45.37;99284.08;106699;1266;60050;-39
2023/06/14 08:48:02;;;;;;;2.80;2.30;;;;;;;24.17;45.34;99288.43;106693;1265;73085;-39
2023/06/14 08:50:30;;;;;;;3.50;2.70;;;;;;;24.20;45.60;99287.17;106702;1265;67071;-40
2023/06/14 08:53:02;;;;;;;4.50;2.50;;;;;;;24.28;45.11;99281.64;106564;1266;72735;-40
2023/06/14 08:55:30;;;;;;;3.30;2.70;;;;;;;24.32;44.74;99282.02;106739;1267;59648;-40
2023/06/14 08:58:03;;;;;;;5.30;2.70;;;;;;;24.30;44.54;99279.55;106718;1266;60474;-40
2023/06/14 09:00:32;;;;;;;7.00;2.80;;;;;;;24.17;44.47;99280.21;106771;1269;73093;-39
2023/06/14 09:03:05;;;;;;;4.30;2.70;;;;;;;24.04;45.33;99281.27;106709;1265;67997;-39
2023/06/14 09:05:33;;;;;;;6.30;2.70;;;;;;;23.97;46.18;99273.98;106686;1266;73068;-39
2023/06/14 09:08:01;;;;;;;3.50;2.80;;;;;;;23.99;46.10;99273.91;106706;1265;60656;-39
2023/06/14 09:10:37;;;;;;;5.40;2.90;;;;;;;24.00;45.96;99271.35;106720;1265;60058;-40
2023/06/14 09:13:06;;;;;;;6.20;2.90;;;;;;;24.03;46.33;99268.95;106712;1269;73190;-40
2023/06/14 09:15:35;;;;;;;3.60;2.90;;;;;;;24.11;46.97;99265.48;106733;1265;66839;-39
2023/06/14 09:18:03;;;;;;;3.00;2.50;;;;;;;24.24;46.67;99266.35;106756;1265;72663;-40
2023/06/14 09:20:31;;;;;;;3.80;2.70;;;;;;;24.40;46.18;99262.23;106657;1270;60103;-40
2023/06/14 09:23:00;;;;;;;3.60;2.90;;;;;;;24.54;45.38;99259.52;106737;1265;59953;-40
2023/06/14 09:25:28;;;;;;;6.40;3.20;;;;;;;24.67;45.68;99261.24;106765;1265;73037;-39
2023/06/14 09:28:08;;;;;;;9.40;3.40;;;;;;;24.81;45.14;99262.14;106751;1265;68493;-39
2023/06/14 09:30:37;;;;;;;6.10;3.00;;;;;;;24.87;44.72;99262.35;106780;1270;73170;-40
2023/06/14 09:33:05;;;;;;;4.80;2.80;;;;;;;24.93;44.82;99260.38;106805;1266;59661;-40
2023/06/14 09:35:33;;;;;;;4.10;2.70;;;;;;;25.01;44.71;99256.95;106790;1270;60368;-40
2023/06/14 09:38:01;;;;;;;3.40;2.60;;;;;;;25.13;44.03;99254.97;106745;1265;72815;-39
2023/06/14 09:40:28;;;;;;;7.00;3.10;;;;;;;25.18;44.51;99257.10;106732;1265;67887;-40
2023/06/14 09:42:57;;;;;;;3.90;2.70;;;;;;;25.17;44.54;99256.05;106604;1265;72663;-40
2023/06/14 09:45:28;;;;;;;3.90;2.80;;;;;;;25.15;45.00;99259.71;106772;1265;59776;-39
2023/06/14 09:47:58;;;;;;;4.20;3.20;;;;;;;25.10;45.00;99257.60;106655;1265;60498;-39
2023/06/14 09:50:28;;;;;;;6.60;3.30;;;;;;;25.03;44.74;99255.98;106760;1265;72056;-40
2023/06/14 09:52:58;;;;;;;4.50;3.20;;;;;;;24.95;44.51;99259.19;106735;1268;67924;-40
2023/06/14 09:55:26;;;;;;;4.90;3.40;;;;;;;24.84;44.80;99260.34;106611;1265;72742;-39
2023/06/14 09:57:53;;;;;;;5.70;3.40;;;;;;;24.72;45.34;99258.91;106669;1265;60180;-40
2023/06/14 10:00:22;;;;;;;5.60;3.40;;;;;;;24.60;45.81;99257.86;106753;1266;59331;-39
2023/06/14 10:02:54;;;;;;;5.00;3.20;;;;;;;24.51;46.07;99259.20;106757;1269;73058;-39
2023/06/14 10:05:22;;;;;;;8.50;3.70;;;;;;;24.42;46.24;99262.64;106782;1265;66461;-40
2023/06/14 10:07:59;;;;;;;4.10;3.50;;;;;;;24.35;46.19;99258.17;106551;1266;72737;-40
2023/06/14 10:10:26;;;;;;;6.40;3.20;;;;;;;24.29;46.23;99255.79;106702;1269;60530;-39
2023/06/14 10:12:54;;;;;;;5.70;3.30;;;;;;;24.28;46.69;99255.84;106593;1265;60455;-39
2023/06/14 10:16:00;;;;;;;6.70;3.60;;;;;;;24.32;46.40;99254.33;106728;1265;72672;-39
2023/06/14 10:18:32;;;;;;;6.40;3.80;;;;;;;24.41;46.58;99259.75;107417;1254;67890;-39
2023/06/14 10:21:04;;;;;;;4.30;3.10;;;;;;;24.46;46.38;99255.77;107377;1256;72770;-39
2023/06/14 10:23:32;;;;;;;4.60;3.50;;;;;;;24.51;46.31;99255.30;107433;1254;59399;-39
2023/06/14 10:26:00;;;;;;;6.40;2.90;;;;;;;24.56;45.70;99253.87;107402;1254;60531;-39
2023/06/14 10:28:30;;;;;;;6.00;3.30;;;;;;;24.62;45.46;99251.55;107427;1254;72558;-40
2023/06/14 10:31:11;;;;;;;5.60;3.50;;;;;;;24.70;45.12;99253.85;107389;1256;67914;-39
2023/06/14 10:33:50;;;;;;;4.60;3.00;;;;;;;24.75;44.59;99251.52;107400;1254;72690;-39
2023/06/14 10:36:27;;;;;;;4.80;3.00;;;;;;;24.78;44.29;99250.27;107380;1254;60353;-39
2023/06/14 10:39:10;;;;;;;5.30;3.50;;;;;;;24.85;44.61;99250.95;107411;1255;60304;-39
2023/06/14 10:41:38;;;;;;;7.00;3.00;;;;;;;25.02;44.59;99244.80;107290;1256;72470;-39
2023/06/14 10:44:29;;;;;;;4.60;3.30;;;;;;;25.22;44.43;99249.79;107461;1258;67901;-39
2023/06/14 10:47:01;;;;;;;4.10;2.80;;;;;;;25.48;43.88;99247.67;107262;1256;71391;-39
2023/06/14 10:49:45;;;;;;;6.10;2.90;;;;;;;25.68;43.58;99249.83;107445;1256;60318;-39
2023/06/14 10:52:18;;;;;;;5.50;3.30;;;;;;;25.87;42.70;99246.89;107409;1256;60390;-39
2023/06/14 10:55:06;;;;;;;11.20;3.20;;;;;;;26.02;41.94;99249.05;107416;1255;73870;-39
2023/06/14 10:57:34;;;;;;;8.90;3.10;;;;;;;26.21;41.77;99246.55;107444;1255;67768;-40
2023/06/14 11:00:22;;;;;;;4.60;2.80;;;;;;;26.47;41.70;99248.03;107373;1254;72689;-40
2023/06/14 11:02:56;;;;;;;6.50;3.40;;;;;;;26.78;41.16;99244.12;107285;1256;60313;-39
2023/06/14 11:05:28;;;;;;;9.40;3.50;;;;;;;27.12;40.76;99245.63;107349;1254;60516;-39
2023/06/14 11:08:35;;;;;;;6.50;3.00;;;;;;;27.40;39.59;99243.55;107417;1254;73888;-39
2023/06/14 11:11:06;;;;;;;3.50;2.70;;;;;;;27.52;38.89;99240.60;107382;1258;66294;-39
2023/06/14 11:13:34;;;;;;;4.90;2.80;;;;;;;27.51;38.72;99237.39;107445;1256;72706;-39
2023/06/14 11:16:02;;;;;;;4.50;2.80;;;;;;;27.47;38.58;99238.89;107301;1254;60439;-39
2023/06/14 11:18:30;;;;;;;5.10;2.80;;;;;;;27.50;39.79;99239.96;107314;1255;60421;-40
2023/06/14 11:20:57;;;;;;;4.90;2.50;;;;;;;27.63;39.78;99243.02;107399;1258;74298;-39
2023/06/14 11:23:25;;;;;;;3.90;3.00;;;;;;;27.73;39.33;99241.00;107377;1258;67608;-39
2023/06/14 11:25:53;;;;;;;3.80;2.60;;;;;;;27.76;39.24;99239.95;107343;1256;72750;-39
2023/06/14 11:28:21;;;;;;;5.40;3.20;;;;;;;27.76;39.59;99241.38;107334;1256;60397;-40
2023/06/14 11:31:00;;;;;;;5.50;2.90;;;;;;;27.71;39.29;99246.84;107391;1255;60018;-39
2023/06/14 11:33:27;;;;;;;4.50;2.50;;;;;;;27.57;38.42;99247.95;107355;1254;72563;-40
2023/06/14 11:35:55;;;;;;;5.30;2.80;;;;;;;27.38;38.67;99247.36;107299;1256;67589;-39
2023/06/14 11:38:23;;;;;;;5.60;3.00;;;;;;;27.20;38.99;99246.03;107295;1254;72720;-39